Time;durP1;ratioP1;P1;durP2;ratioP2;P2;SDS_P1;SDS_P2;PMS_P1;PMS_P2;Temp;Humidity;BMP_temperature;BMP_pressure;BME280_temperature;BME280_humidity;BME280_pressure;Samples;Min_cycle;Max_cycle;Signal;HPM_P1;HPM_P2
2022/07/09 00:00:20;;;;;;;6.40;3.50;;;;;;;20.37;60.40;100986.78;5090276;28;20044;-62
2022/07/09 00:02:46;;;;;;;7.07;3.42;;;;;;;20.37;60.35;100982.25;5090470;28;20041;-62
2022/07/09 00:05:13;;;;;;;7.55;3.70;;;;;;;20.37;60.51;100989.44;5090525;28;20048;-61
2022/07/09 00:07:43;;;;;;;5.63;3.70;;;;;;;20.37;60.50;100978.75;5090382;28;20059;-61
2022/07/09 00:10:11;;;;;;;7.43;4.10;;;;;;;20.36;60.55;100975.22;5090451;28;20092;-63
2022/07/09 00:12:38;;;;;;;4.63;3.03;;;;;;;20.37;60.38;100973.41;5090425;28;20055;-64
2022/07/09 00:15:05;;;;;;;7.80;3.58;;;;;;;20.36;60.77;100969.88;5090664;28;20052;-61
2022/07/09 00:17:32;;;;;;;6.00;3.50;;;;;;;20.36;60.66;100977.03;5090465;28;20056;-62
2022/07/09 00:19:58;;;;;;;7.63;3.72;;;;;;;20.36;60.63;100969.00;5089029;28;20056;-60
2022/07/09 00:22:25;;;;;;;5.97;3.78;;;;;;;20.35;60.71;100970.84;5090595;28;20055;-60
2022/07/09 00:24:52;;;;;;;8.40;3.67;;;;;;;20.34;60.64;100966.47;5090147;28;20117;-62
2022/07/09 00:27:18;;;;;;;6.53;3.45;;;;;;;20.33;60.55;100961.25;5090318;28;20048;-62
2022/07/09 00:29:45;;;;;;;7.72;3.60;;;;;;;20.31;60.62;100969.38;5089998;28;20055;-60
2022/07/09 00:32:11;;;;;;;4.72;3.17;;;;;;;20.29;60.55;100972.19;5090512;28;20048;-61
2022/07/09 00:34:38;;;;;;;9.98;3.53;;;;;;;20.27;60.79;100967.94;5090166;28;20440;-63
2022/07/09 00:37:05;;;;;;;6.57;3.58;;;;;;;20.26;60.89;100974.25;5090391;28;20052;-61
2022/07/09 00:39:31;;;;;;;8.93;3.70;;;;;;;20.24;60.89;100973.50;5089896;28;20409;-60
2022/07/09 00:42:09;;;;;;;7.13;3.38;;;;;;;20.18;62.00;100977.50;5090197;28;20048;-61
2022/07/09 00:44:36;;;;;;;6.78;3.65;;;;;;;20.22;61.07;100975.47;5088845;28;20055;-61
2022/07/09 00:47:04;;;;;;;9.88;3.58;;;;;;;20.20;61.31;100974.72;5093556;28;20052;-61
2022/07/09 00:49:35;;;;;;;5.07;3.60;;;;;;;20.19;61.50;100973.88;5092559;28;20056;-60
2022/07/09 00:52:02;;;;;;;7.97;4.05;;;;;;;20.18;61.28;100972.16;5092574;28;20105;-61
2022/07/09 00:54:29;;;;;;;8.23;4.18;;;;;;;20.17;61.41;100966.00;5093592;28;20044;-63
2022/07/09 00:56:55;;;;;;;9.68;4.20;;;;;;;20.17;61.53;100966.00;5093946;28;20067;-61
2022/07/09 00:59:22;;;;;;;6.43;3.75;;;;;;;20.15;61.34;100962.56;5093554;28;20401;-61
2022/07/09 01:01:50;;;;;;;4.85;3.55;;;;;;;20.14;61.76;100958.19;5093742;28;20044;-63
2022/07/09 01:04:17;;;;;;;8.77;4.10;;;;;;;20.15;61.84;100957.22;5093504;28;20079;-60
2022/07/09 01:06:44;;;;;;;8.45;3.75;;;;;;;20.13;61.96;100956.50;5092272;28;20570;-60
2022/07/09 01:09:11;;;;;;;10.45;4.25;;;;;;;20.14;61.94;100955.53;5091928;28;20095;-65
2022/07/09 01:11:38;;;;;;;8.00;4.38;;;;;;;20.12;61.89;100952.13;5093678;28;20048;-61
2022/07/09 01:14:04;;;;;;;9.35;4.43;;;;;;;20.13;62.01;100952.97;5093573;28;20381;-60
2022/07/09 01:16:32;;;;;;;12.10;4.72;;;;;;;20.13;62.15;100952.97;5093519;28;20515;-63
2022/07/09 01:18:59;;;;;;;9.02;4.47;;;;;;;20.13;62.00;100948.50;5091773;28;20059;-62
2022/07/09 01:21:26;;;;;;;6.32;4.13;;;;;;;20.12;61.95;100946.78;5093168;28;20052;-62
2022/07/09 01:23:52;;;;;;;7.53;3.92;;;;;;;20.11;62.05;100939.72;5093476;28;20058;-60
2022/07/09 01:26:20;;;;;;;8.13;4.38;;;;;;;20.11;62.08;100933.53;5093122;28;20063;-64
2022/07/09 01:28:47;;;;;;;6.80;4.22;;;;;;;20.10;62.00;100939.84;5091864;28;20059;-61
2022/07/09 01:31:14;;;;;;;6.07;3.90;;;;;;;20.09;62.05;100935.47;5091840;28;20138;-60
2022/07/09 01:33:42;;;;;;;4.53;3.90;;;;;;;20.08;62.07;100923.94;5092977;28;20715;-62
2022/07/09 01:36:08;;;;;;;9.80;4.80;;;;;;;20.06;62.05;100925.88;5091716;28;20063;-60
2022/07/09 01:38:35;;;;;;;8.82;4.05;;;;;;;20.05;62.19;100925.03;5092981;28;20074;-60
2022/07/09 01:41:03;;;;;;;6.05;3.90;;;;;;;20.05;61.99;100913.50;5093054;28;20060;-61
2022/07/09 01:43:30;;;;;;;11.90;4.63;;;;;;;20.02;62.08;100919.94;5091738;28;20052;-60
2022/07/09 01:46:00;;;;;;;9.70;4.32;;;;;;;20.03;61.92;100923.44;5092867;28;20048;-61
2022/07/09 01:48:29;;;;;;;8.57;4.18;;;;;;;19.99;62.51;100920.16;5092436;28;20051;-61
2022/07/09 01:50:58;;;;;;;11.73;4.45;;;;;;;19.99;62.16;100921.97;5091389;28;20514;-61
2022/07/09 01:53:25;;;;;;;10.00;4.50;;;;;;;19.97;62.45;100921.22;5092863;28;20044;-61
2022/07/09 01:55:51;;;;;;;6.50;4.35;;;;;;;19.95;62.30;100917.84;5092534;28;20087;-61
2022/07/09 01:58:18;;;;;;;8.25;4.60;;;;;;;19.92;62.51;100917.09;5091798;28;20106;-64
2022/07/09 02:00:45;;;;;;;10.57;5.15;;;;;;;19.91;62.41;100912.72;5092531;28;20510;-61
2022/07/09 02:03:11;;;;;;;10.93;5.30;;;;;;;19.91;62.76;100917.22;5092305;28;20060;-61
2022/07/09 02:05:38;;;;;;;7.35;4.75;;;;;;;19.91;62.58;100911.88;5074602;28;20109;-62
2022/07/09 02:08:04;;;;;;;13.05;5.93;;;;;;;19.90;62.87;100911.03;5092169;28;20063;-62
2022/07/09 02:10:31;;;;;;;11.30;5.22;;;;;;;19.89;62.70;100903.97;5092445;28;20089;-61
2022/07/09 02:12:58;;;;;;;11.38;5.47;;;;;;;19.90;62.78;100905.69;5092341;28;20048;-61
2022/07/09 02:15:25;;;;;;;11.40;5.53;;;;;;;19.90;63.04;100904.81;5092368;28;20048;-61
2022/07/09 02:17:51;;;;;;;10.35;5.88;;;;;;;19.90;63.14;100908.38;5092091;28;20418;-61
2022/07/09 02:20:18;;;;;;;12.52;5.88;;;;;;;19.91;63.17;100906.53;5092122;28;20055;-60
2022/07/09 02:22:45;;;;;;;7.47;5.00;;;;;;;19.91;63.10;100907.38;5092153;28;20494;-62
2022/07/09 02:25:11;;;;;;;13.63;6.15;;;;;;;19.91;63.37;100902.03;5092129;28;20484;-61
2022/07/09 02:27:38;;;;;;;15.38;7.05;;;;;;;19.91;63.11;100896.69;5091922;28;20048;-61
2022/07/09 02:30:05;;;;;;;16.63;7.47;;;;;;;19.90;63.49;100907.50;5091756;28;20048;-63
2022/07/09 02:32:32;;;;;;;13.35;8.35;;;;;;;19.90;63.44;100903.00;5090819;28;20051;-61
2022/07/09 02:34:59;;;;;;;16.25;8.98;;;;;;;19.90;63.35;100899.47;5091974;28;20048;-61
2022/07/09 02:37:25;;;;;;;22.17;11.55;;;;;;;19.91;63.67;100903.84;5091657;28;20048;-61
2022/07/09 02:39:52;;;;;;;23.98;11.80;;;;;;;19.91;63.36;100901.16;5091723;28;20063;-61
2022/07/09 02:42:18;;;;;;;22.73;12.25;;;;;;;19.91;63.29;100903.84;5092001;28;20055;-61
2022/07/09 02:44:45;;;;;;;26.30;15.05;;;;;;;19.89;63.45;100900.47;5091696;28;20044;-64
2022/07/09 02:47:11;;;;;;;28.10;13.70;;;;;;;19.88;63.45;100898.72;5090522;28;20052;-61
2022/07/09 02:49:38;;;;;;;23.98;12.95;;;;;;;19.86;63.31;100898.88;5091256;28;20055;-61
2022/07/09 02:52:06;;;;;;;26.25;13.07;;;;;;;19.85;63.27;100891.81;5091500;28;20055;-60
2022/07/09 02:54:33;;;;;;;21.98;13.63;;;;;;;19.85;63.26;100899.81;5091544;28;20052;-61
2022/07/09 02:57:00;;;;;;;20.85;14.30;;;;;;;19.83;63.41;100896.44;5090279;28;20092;-60
2022/07/09 02:59:27;;;;;;;20.33;12.98;;;;;;;19.81;63.46;100892.19;5091079;28;20747;-62
2022/07/09 03:01:54;;;;;;;21.40;13.55;;;;;;;19.79;63.30;100886.97;5091156;28;20052;-61
2022/07/09 03:04:20;;;;;;;17.15;12.52;;;;;;;19.77;63.39;100889.75;5091298;28;20496;-60
2022/07/09 03:06:48;;;;;;;19.58;13.77;;;;;;;19.75;63.39;100897.06;5091405;28;20087;-60
2022/07/09 03:09:15;;;;;;;24.65;14.70;;;;;;;19.74;63.34;100889.97;5090265;28;20080;-61
2022/07/09 03:11:42;;;;;;;23.08;14.77;;;;;;;19.74;63.57;100892.66;5091245;28;20074;-61
2022/07/09 03:14:08;;;;;;;23.25;15.85;;;;;;;19.74;63.40;100894.50;5091569;28;20060;-61
2022/07/09 03:16:35;;;;;;;25.02;15.98;;;;;;;19.73;63.68;100901.66;5091347;28;20040;-61
2022/07/09 03:19:01;;;;;;;28.00;17.05;;;;;;;19.73;63.64;100898.97;5090975;28;20040;-61
2022/07/09 03:21:28;;;;;;;25.58;15.40;;;;;;;19.74;63.48;100894.50;5091130;28;20051;-63
2022/07/09 03:23:54;;;;;;;21.98;15.90;;;;;;;19.73;63.60;100888.28;5091103;28;20484;-62
2022/07/09 03:26:21;;;;;;;22.80;15.57;;;;;;;19.73;63.65;100890.97;5089606;28;20139;-62
2022/07/09 03:28:47;;;;;;;18.92;13.73;;;;;;;19.72;63.86;100886.59;5089411;28;20052;-62
2022/07/09 03:31:14;;;;;;;16.42;11.15;;;;;;;19.70;63.60;100893.84;5091118;28;20074;-63
2022/07/09 03:33:41;;;;;;;15.75;10.13;;;;;;;19.69;63.45;100881.47;5090881;28;20048;-62
2022/07/09 03:36:09;;;;;;;10.80;8.98;;;;;;;19.67;63.18;100883.44;5090865;28;20058;-61
2022/07/09 03:38:36;;;;;;;10.93;7.75;;;;;;;19.65;63.58;100885.34;5090751;28;20040;-61
2022/07/09 03:41:03;;;;;;;10.02;7.25;;;;;;;19.64;63.47;100889.88;5090681;28;20044;-62
2022/07/09 03:43:30;;;;;;;9.43;6.15;;;;;;;19.62;63.43;100889.13;5090894;28;20078;-60
2022/07/09 03:45:57;;;;;;;10.27;6.45;;;;;;;19.60;63.19;100880.41;5090711;28;20511;-61
2022/07/09 03:48:23;;;;;;;8.70;6.20;;;;;;;19.58;63.46;100876.97;5089377;28;20048;-61
2022/07/09 03:50:50;;;;;;;8.25;5.70;;;;;;;19.57;63.38;100877.09;5090387;28;20450;-61
2022/07/09 03:53:16;;;;;;;9.45;5.55;;;;;;;19.56;63.40;100867.38;5090624;28;20047;-63
2022/07/09 03:55:43;;;;;;;10.50;6.28;;;;;;;19.53;63.33;100873.81;5090596;28;20052;-63
2022/07/09 03:58:10;;;;;;;8.70;5.45;;;;;;;19.52;63.73;100870.28;5089351;28;20055;-61
2022/07/09 04:00:37;;;;;;;8.07;5.00;;;;;;;19.51;63.60;100868.59;5089511;28;20056;-65
2022/07/09 04:03:03;;;;;;;10.93;5.50;;;;;;;19.51;63.79;100878.44;5090483;28;20102;-61
2022/07/09 04:05:30;;;;;;;8.02;4.88;;;;;;;19.49;63.37;100875.03;5089371;28;20070;-63
2022/07/09 04:07:57;;;;;;;8.48;4.75;;;;;;;19.48;63.35;100876.81;5090561;28;20044;-61
2022/07/09 04:10:24;;;;;;;8.38;5.40;;;;;;;19.47;63.70;100871.63;5089368;28;20495;-61
2022/07/09 04:12:50;;;;;;;6.90;4.80;;;;;;;19.46;63.41;100875.25;5090835;28;20059;-61
2022/07/09 04:15:17;;;;;;;8.35;5.18;;;;;;;19.44;63.74;100878.03;5089273;28;20044;-61
2022/07/09 04:17:43;;;;;;;7.15;4.63;;;;;;;19.42;63.74;100876.44;5090397;28;20052;-62
2022/07/09 04:20:10;;;;;;;7.80;4.97;;;;;;;19.40;63.78;100882.75;5089173;28;20526;-61
2022/07/09 04:22:37;;;;;;;8.10;4.93;;;;;;;19.39;63.89;100882.88;5094328;28;20073;-65
2022/07/09 04:25:04;;;;;;;8.07;4.70;;;;;;;19.38;63.75;100878.50;5094396;28;20435;-61
2022/07/09 04:27:31;;;;;;;8.23;4.80;;;;;;;19.38;63.77;100879.38;5094279;28;20071;-60
2022/07/09 04:29:57;;;;;;;7.85;5.18;;;;;;;19.38;64.11;100878.50;5094380;28;20056;-63
2022/07/09 04:32:24;;;;;;;5.93;4.60;;;;;;;19.38;63.95;100884.72;5094140;28;20450;-60
2022/07/09 04:34:51;;;;;;;10.02;5.13;;;;;;;19.39;63.89;100886.41;5094330;28;20129;-61
2022/07/09 04:37:17;;;;;;;5.15;4.03;;;;;;;19.41;64.25;100891.63;5094114;28;20478;-61
2022/07/09 04:39:44;;;;;;;9.23;4.65;;;;;;;19.44;64.15;100894.06;5094093;28;20051;-61
2022/07/09 04:42:12;;;;;;;7.55;4.78;;;;;;;19.43;64.14;100897.69;5094315;28;20059;-61
2022/07/09 04:44:39;;;;;;;5.18;4.40;;;;;;;19.44;64.19;100898.56;5094067;28;20076;-61
2022/07/09 04:47:06;;;;;;;7.40;4.15;;;;;;;19.44;63.75;100887.88;5092582;28;20504;-62
2022/07/09 04:49:33;;;;;;;7.90;4.70;;;;;;;19.44;63.93;100885.22;5093473;28;20052;-61
2022/07/09 04:52:04;;;;;;;6.95;4.03;;;;;;;19.44;64.31;100882.53;5093917;28;20044;-62
2022/07/09 04:54:31;;;;;;;6.68;4.00;;;;;;;19.44;64.34;100894.06;5092707;28;20055;-62
2022/07/09 04:56:57;;;;;;;6.68;4.03;;;;;;;19.44;64.23;100893.22;5094181;28;20052;-60
2022/07/09 04:59:24;;;;;;;5.78;3.92;;;;;;;19.46;64.24;100892.13;5093579;28;20051;-63
2022/07/09 05:01:51;;;;;;;7.35;4.22;;;;;;;19.47;64.16;100882.31;5093818;28;20488;-61
2022/07/09 05:04:17;;;;;;;9.45;4.30;;;;;;;19.49;64.16;100891.91;5093528;28;20101;-60
2022/07/09 05:06:44;;;;;;;6.28;3.80;;;;;;;19.51;64.41;100886.44;5093560;28;20135;-64
2022/07/09 05:09:11;;;;;;;8.80;4.35;;;;;;;19.52;64.26;100877.47;5093355;28;20476;-61
2022/07/09 05:11:37;;;;;;;9.60;4.00;;;;;;;19.56;63.85;100880.72;5093663;28;20048;-60
2022/07/09 05:14:04;;;;;;;4.65;3.45;;;;;;;19.57;64.41;100872.59;5093496;28;20454;-61
2022/07/09 05:16:30;;;;;;;6.97;4.03;;;;;;;19.59;64.22;100881.34;5093316;28;20511;-61
2022/07/09 05:18:57;;;;;;;9.13;4.22;;;;;;;19.62;64.45;100878.44;5092843;28;20051;-66
2022/07/09 05:21:25;;;;;;;6.97;4.95;;;;;;;19.63;64.11;100874.78;5093661;28;20051;-61
2022/07/09 05:23:51;;;;;;;5.90;4.78;;;;;;;19.65;64.30;100880.88;5093564;28;20056;-61
2022/07/09 05:26:18;;;;;;;8.40;4.57;;;;;;;19.69;64.09;100880.66;5093017;28;20056;-61
2022/07/09 05:28:44;;;;;;;9.05;4.53;;;;;;;19.72;63.96;100883.06;5093182;28;20097;-65
2022/07/09 05:31:11;;;;;;;6.75;4.53;;;;;;;19.75;64.14;100880.16;5093198;28;20450;-63
2022/07/09 05:33:59;;;;;;;6.63;4.63;;;;;;;19.79;64.11;100865.59;5092284;28;20445;-61
2022/07/09 05:36:28;;;;;;;8.90;4.70;;;;;;;19.83;64.21;100874.22;5092982;28;20408;-63
2022/07/09 05:38:56;;;;;;;8.63;4.90;;;;;;;19.86;64.28;100882.84;5092968;28;20040;-63
2022/07/09 05:41:24;;;;;;;7.78;4.85;;;;;;;19.90;64.15;100867.41;5091657;28;20052;-61
2022/07/09 05:43:51;;;;;;;10.65;5.05;;;;;;;19.93;64.04;100861.84;5091609;28;20091;-62
2022/07/09 05:46:19;;;;;;;6.28;5.47;;;;;;;19.98;63.88;100864.13;5091195;28;20056;-61
2022/07/09 05:48:45;;;;;;;8.23;5.38;;;;;;;20.01;63.91;100869.28;5092633;28;20746;-62
2022/07/09 05:51:12;;;;;;;7.25;5.30;;;;;;;20.05;63.85;100863.56;5092758;28;20056;-62
2022/07/09 05:53:38;;;;;;;9.35;4.97;;;;;;;20.10;64.06;100865.84;5092926;28;20101;-61
2022/07/09 05:56:06;;;;;;;8.95;5.63;;;;;;;20.16;64.00;100862.72;5092762;28;20052;-65
2022/07/09 05:58:33;;;;;;;8.13;4.78;;;;;;;20.22;63.95;100863.19;5091513;28;20063;-62
2022/07/09 06:01:00;;;;;;;7.38;5.28;;;;;;;20.27;63.77;100867.19;5092934;28;20052;-61
2022/07/09 06:03:27;;;;;;;6.88;5.10;;;;;;;20.32;63.55;100872.16;5092573;28;20562;-62
2022/07/09 06:05:53;;;;;;;5.45;4.55;;;;;;;20.36;63.28;100876.28;5092747;28;20147;-64
2022/07/09 06:08:20;;;;;;;9.43;5.22;;;;;;;20.41;63.54;100884.78;5092317;28;20044;-62
2022/07/09 06:10:47;;;;;;;6.32;4.15;;;;;;;20.46;63.33;100886.22;5092410;28;20048;-62
2022/07/09 06:13:13;;;;;;;7.60;4.57;;;;;;;20.49;63.35;100875.28;5092028;28;20075;-62
2022/07/09 06:15:40;;;;;;;9.30;4.38;;;;;;;20.52;63.09;100873.19;5092745;28;20059;-63
2022/07/09 06:18:07;;;;;;;8.32;4.68;;;;;;;20.59;63.04;100862.03;5092108;28;20058;-63
2022/07/09 06:20:34;;;;;;;4.68;4.05;;;;;;;20.64;63.17;100873.19;5092237;28;20079;-65
2022/07/09 06:23:06;;;;;;;8.60;3.90;;;;;;;20.68;62.85;100864.75;5092096;28;20052;-62
2022/07/09 06:25:33;;;;;;;4.43;3.78;;;;;;;20.75;62.51;100873.13;5091953;28;20087;-62
2022/07/09 06:27:59;;;;;;;4.97;3.30;;;;;;;20.80;62.56;100876.31;5092346;28;20055;-63
2022/07/09 06:30:26;;;;;;;6.68;3.65;;;;;;;20.86;62.35;100874.91;5091945;28;20447;-64
2022/07/09 06:32:52;;;;;;;4.25;3.50;;;;;;;20.89;62.03;100879.22;5091564;28;20048;-62
2022/07/09 06:35:19;;;;;;;6.22;3.67;;;;;;;20.91;62.07;100869.22;5092072;28;20044;-62
2022/07/09 06:37:45;;;;;;;6.30;3.20;;;;;;;20.93;62.02;100870.78;5091909;28;20040;-62
2022/07/09 06:40:13;;;;;;;6.20;3.85;;;;;;;20.97;62.17;100871.38;5091523;28;20462;-63
2022/07/09 06:42:40;;;;;;;5.53;3.30;;;;;;;21.01;62.00;100875.50;5090584;28;20051;-62
2022/07/09 06:45:07;;;;;;;8.57;3.58;;;;;;;21.07;62.07;100874.13;5091547;28;20044;-64
2022/07/09 06:47:35;;;;;;;4.40;3.33;;;;;;;21.14;62.23;100869.13;5090375;28;20052;-64
2022/07/09 06:50:09;;;;;;;4.18;3.17;;;;;;;21.22;61.76;100872.84;5090251;28;20123;-62
2022/07/09 06:52:35;;;;;;;3.50;2.92;;;;;;;21.29;61.33;100859.78;5091609;28;20070;-63
2022/07/09 06:55:03;;;;;;;6.80;3.38;;;;;;;21.37;61.44;100866.34;5091390;28;20055;-61
2022/07/09 06:57:30;;;;;;;5.07;2.85;;;;;;;21.43;61.25;100858.63;5091928;28;20052;-62
2022/07/09 06:59:57;;;;;;;6.93;3.05;;;;;;;21.53;61.13;100857.84;5091308;28;20557;-62
2022/07/09 07:02:23;;;;;;;8.60;3.28;;;;;;;21.59;60.91;100859.97;5091378;28;20494;-62
2022/07/09 07:04:50;;;;;;;5.80;3.10;;;;;;;21.65;60.38;100866.63;5091320;28;20385;-61
2022/07/09 07:07:17;;;;;;;5.88;3.17;;;;;;;21.69;60.33;100860.88;5089989;28;20050;-63
2022/07/09 07:09:44;;;;;;;4.35;2.85;;;;;;;21.77;60.34;100872.78;5091563;28;20071;-61
2022/07/09 07:12:10;;;;;;;3.45;2.75;;;;;;;21.83;60.11;100859.69;5091335;28;20047;-62
2022/07/09 07:14:37;;;;;;;4.30;2.65;;;;;;;21.90;59.83;100868.03;5091247;28;20044;-64
2022/07/09 07:17:04;;;;;;;5.57;3.17;;;;;;;21.95;59.32;100865.81;5091186;28;20066;-62
2022/07/09 07:19:31;;;;;;;6.93;3.65;;;;;;;22.01;58.92;100867.09;5090925;28;20057;-65
2022/07/09 07:21:58;;;;;;;4.57;2.17;;;;;;;22.05;59.36;100865.00;5091234;28;20087;-61
2022/07/09 07:24:25;;;;;;;3.47;2.17;;;;;;;22.08;59.29;100860.22;5091108;28;20054;-62
2022/07/09 07:26:51;;;;;;;3.35;2.58;;;;;;;22.15;59.37;100860.53;5092423;28;20040;-64
2022/07/09 07:29:18;;;;;;;2.88;1.98;;;;;;;22.21;59.55;100859.97;5090739;28;20439;-63
2022/07/09 07:31:45;;;;;;;2.30;1.88;;;;;;;22.31;58.90;100860.00;5090906;28;20040;-61
2022/07/09 07:34:12;;;;;;;3.35;2.20;;;;;;;22.38;58.82;100860.28;5090526;28;20427;-64
2022/07/09 07:36:38;;;;;;;5.75;2.85;;;;;;;22.46;58.65;100857.75;5091055;28;20059;-63
2022/07/09 07:39:05;;;;;;;4.43;2.20;;;;;;;22.50;57.75;100859.19;5088587;28;20040;-62
2022/07/09 07:41:32;;;;;;;5.00;2.53;;;;;;;22.54;57.69;100858.91;5089791;28;20063;-64
2022/07/09 07:43:59;;;;;;;3.00;2.38;;;;;;;22.56;57.58;100859.63;5088929;28;20075;-63
2022/07/09 07:46:25;;;;;;;4.70;2.47;;;;;;;22.56;57.19;100857.81;5089872;28;20040;-62
2022/07/09 07:48:52;;;;;;;3.85;2.53;;;;;;;22.57;57.30;100856.00;5088398;28;20615;-64
2022/07/09 07:51:19;;;;;;;3.45;2.42;;;;;;;22.57;56.93;100861.38;5090155;28;20109;-63
2022/07/09 07:53:45;;;;;;;3.08;2.63;;;;;;;22.56;57.11;100855.13;5090806;28;20044;-62
2022/07/09 07:56:12;;;;;;;3.83;2.60;;;;;;;22.56;57.02;100852.44;5090250;28;20101;-63
2022/07/09 07:58:39;;;;;;;4.10;2.15;;;;;;;22.54;57.23;100849.00;5090630;28;20062;-63
2022/07/09 08:01:05;;;;;;;5.85;2.65;;;;;;;22.55;56.93;100849.91;5090473;28;20055;-63
2022/07/09 08:03:32;;;;;;;4.80;2.30;;;;;;;22.54;56.78;100843.66;5090338;28;20575;-63
2022/07/09 08:05:59;;;;;;;3.67;2.45;;;;;;;22.54;56.88;100849.00;5090453;28;20771;-63
2022/07/09 08:08:27;;;;;;;6.55;2.30;;;;;;;22.51;56.78;100839.41;5088824;28;20488;-63
2022/07/09 08:10:54;;;;;;;4.53;2.58;;;;;;;22.52;57.04;100842.94;5088868;28;20059;-63
2022/07/09 08:13:21;;;;;;;4.15;2.30;;;;;;;22.52;57.11;100842.94;5090331;28;20060;-64
2022/07/09 08:15:47;;;;;;;4.47;2.65;;;;;;;22.52;57.15;100830.41;5090318;28;20514;-62
2022/07/09 08:18:14;;;;;;;2.92;2.25;;;;;;;22.55;57.49;100828.44;5090138;28;20055;-63
2022/07/09 08:20:42;;;;;;;3.92;2.38;;;;;;;22.58;57.68;100829.00;5089433;28;20052;-63
2022/07/09 08:23:09;;;;;;;3.63;2.40;;;;;;;22.64;57.37;100832.97;5090257;28;20488;-62
2022/07/09 08:25:36;;;;;;;4.72;2.70;;;;;;;22.70;57.48;100829.72;5090485;28;20048;-62
2022/07/09 08:28:03;;;;;;;5.85;2.85;;;;;;;22.75;57.13;100827.47;5090344;28;20052;-68
2022/07/09 08:30:30;;;;;;;2.60;1.95;;;;;;;22.83;57.44;100823.25;5090118;28;20048;-65
2022/07/09 08:32:56;;;;;;;2.95;2.20;;;;;;;22.88;57.32;100826.34;5090214;28;20565;-65
2022/07/09 08:35:25;;;;;;;3.47;2.38;;;;;;;22.93;56.70;100824.06;5089270;28;20470;-62
2022/07/09 08:37:52;;;;;;;3.63;1.92;;;;;;;22.96;56.60;100818.41;5090231;28;20098;-63
2022/07/09 08:40:20;;;;;;;2.95;2.10;;;;;;;22.99;56.34;100820.78;5088509;28;20087;-64
2022/07/09 08:42:48;;;;;;;3.40;2.10;;;;;;;23.01;56.24;100805.41;5090175;28;20056;-65
2022/07/09 08:45:17;;;;;;;2.78;2.00;;;;;;;23.03;56.31;100819.53;5088888;28;20060;-64
2022/07/09 08:47:43;;;;;;;2.72;1.80;;;;;;;23.06;56.48;100822.94;5088618;28;20044;-63
2022/07/09 08:50:11;;;;;;;4.15;2.05;;;;;;;23.04;55.93;100820.38;5089903;28;20131;-62
2022/07/09 08:52:40;;;;;;;5.05;2.70;;;;;;;23.03;55.59;100822.22;5090109;28;20051;-65
2022/07/09 08:55:08;;;;;;;2.38;1.95;;;;;;;23.04;55.56;100817.69;5088921;28;20412;-63
2022/07/09 08:57:34;;;;;;;3.88;1.65;;;;;;;23.06;55.65;100820.25;5090212;28;20044;-62
2022/07/09 09:00:03;;;;;;;3.15;2.10;;;;;;;23.03;55.67;100824.06;5089957;28;20055;-63
2022/07/09 09:02:37;;;;;;;3.17;1.88;;;;;;;23.01;55.61;100826.88;5088920;28;20101;-63
2022/07/09 09:05:13;;;;;;;2.47;1.60;;;;;;;22.99;55.49;100831.53;5089963;28;20065;-64
2022/07/09 09:07:40;;;;;;;2.40;1.60;;;;;;;23.02;55.31;100830.41;5089802;28;20098;-62
2022/07/09 09:10:07;;;;;;;2.92;1.75;;;;;;;23.01;55.56;100834.09;5093198;28;20397;-62
2022/07/09 09:12:34;;;;;;;3.65;2.08;;;;;;;22.98;55.46;100837.91;5093799;28;20044;-63
2022/07/09 09:15:05;;;;;;;6.45;1.90;;;;;;;22.94;55.30;100847.22;5093525;28;20047;-62
2022/07/09 09:17:32;;;;;;;1.85;1.75;;;;;;;22.91;54.93;100840.31;5093422;28;20774;-62
2022/07/09 09:20:00;;;;;;;3.25;1.73;;;;;;;22.87;54.84;100835.34;5093350;28;20565;-62
2022/07/09 09:22:27;;;;;;;3.05;1.77;;;;;;;22.82;55.00;100824.19;5093403;28;20056;-62
2022/07/09 09:24:55;;;;;;;1.83;1.50;;;;;;;22.78;55.58;100824.50;5093335;28;20105;-62
2022/07/09 09:27:30;;;;;;;2.58;1.80;;;;;;;22.78;55.80;100823.66;5092262;28;20052;-63
2022/07/09 09:29:59;;;;;;;1.95;1.50;;;;;;;22.85;55.73;100827.47;5090344;28;20059;-62
2022/07/09 09:32:25;;;;;;;3.03;1.83;;;;;;;22.93;56.41;100826.75;5093210;28;20448;-62
2022/07/09 09:34:52;;;;;;;1.83;1.30;;;;;;;23.06;56.44;100833.66;5091746;28;20055;-62
2022/07/09 09:37:29;;;;;;;5.07;1.60;;;;;;;23.16;55.77;100824.59;5091123;28;20067;-64
2022/07/09 09:39:56;;;;;;;2.05;1.40;;;;;;;23.36;56.51;100826.44;5091640;28;20044;-62
2022/07/09 09:42:25;;;;;;;5.15;1.40;;;;;;;23.54;55.44;100823.81;5093144;28;20503;-63
2022/07/09 09:44:57;;;;;;;4.75;1.33;;;;;;;23.75;55.76;100817.38;5090724;28;20122;-62
2022/07/09 09:47:24;;;;;;;3.63;1.20;;;;;;;23.96;55.13;100817.16;5092952;28;20056;-62
2022/07/09 09:49:54;;;;;;;3.50;1.17;;;;;;;24.12;53.95;100813.84;5092633;28;20070;-62
2022/07/09 09:52:21;;;;;;;5.00;1.80;;;;;;;24.29;53.85;100814.03;5091747;28;20048;-65
2022/07/09 09:54:50;;;;;;;25.35;6.78;;;;;;;24.43;53.49;100812.63;5093048;28;20048;-61
2022/07/09 09:57:17;;;;;;;104.45;27.27;;;;;;;24.56;53.95;100809.56;5091414;28;20511;-63
2022/07/09 09:59:45;;;;;;;15.48;5.07;;;;;;;24.69;52.61;100819.94;5091188;28;20059;-63
2022/07/09 10:02:12;;;;;;;4.93;2.38;;;;;;;24.77;52.11;100828.09;5092585;28;20052;-62
2022/07/09 10:04:41;;;;;;;8.65;2.40;;;;;;;24.81;51.63;100825.94;5091202;28;20048;-62
2022/07/09 10:07:10;;;;;;;13.93;3.65;;;;;;;24.80;51.02;100827.78;5090763;28;20484;-62
2022/07/09 10:09:37;;;;;;;1.70;1.50;;;;;;;24.76;50.64;100828.25;5090829;28;20076;-63
2022/07/09 10:12:05;;;;;;;2.17;1.30;;;;;;;24.70;51.04;100816.25;5091006;28;20052;-62
2022/07/09 10:14:33;;;;;;;2.05;1.30;;;;;;;24.67;51.82;100819.25;5092535;28;20060;-63
2022/07/09 10:17:14;;;;;;;2.28;1.33;;;;;;;24.63;52.80;100807.09;5090951;28;20070;-62
2022/07/09 10:20:03;;;;;;;1.27;1.10;;;;;;;24.70;52.33;100800.09;5090710;28;20123;-62
2022/07/09 10:22:35;;;;;;;1.10;0.95;;;;;;;24.84;51.61;100798.72;5092181;28;20570;-61
2022/07/09 10:25:03;;;;;;;1.63;1.05;;;;;;;24.98;52.48;100794.63;5091066;28;20059;-62
2022/07/09 10:27:41;;;;;;;1.92;1.08;;;;;;;25.10;52.02;100784.44;5090954;28;20080;-62
2022/07/09 10:30:21;;;;;;;1.30;0.90;;;;;;;25.31;51.49;100783.22;5091951;28;20093;-63
2022/07/09 10:33:10;;;;;;;1.70;0.93;;;;;;;25.46;50.72;100781.59;5092101;28;20117;-64
2022/07/09 10:35:44;;;;;;;1.77;1.10;;;;;;;25.64;49.41;100783.41;5090682;28;20056;-64
2022/07/09 10:38:12;;;;;;;3.05;0.90;;;;;;;25.73;48.98;100770.81;5090679;28;20056;-63
2022/07/09 10:40:41;;;;;;;1.27;0.70;;;;;;;25.71;48.49;100773.66;5092140;28;20075;-62
2022/07/09 10:43:08;;;;;;;1.55;0.90;;;;;;;25.65;48.20;100784.25;5090639;28;20055;-65
2022/07/09 10:45:34;;;;;;;1.13;0.90;;;;;;;25.55;47.85;100776.25;5091681;28;20142;-63
2022/07/09 10:48:04;;;;;;;2.08;0.80;;;;;;;25.44;47.76;100782.78;5091847;28;20059;-62
2022/07/09 10:50:32;;;;;;;1.05;0.90;;;;;;;25.35;48.53;100781.91;5090670;28;20051;-62
2022/07/09 10:52:59;;;;;;;0.98;0.70;;;;;;;25.34;49.18;100772.97;5090410;28;20051;-63
2022/07/09 10:55:27;;;;;;;1.52;0.95;;;;;;;25.43;49.80;100770.31;5091607;28;20056;-65
2022/07/09 10:57:54;;;;;;;1.75;0.70;;;;;;;25.60;49.78;100763.19;5090432;28;20475;-63
2022/07/09 11:00:23;;;;;;;1.38;1.05;;;;;;;25.81;49.46;100776.25;5090017;28;20044;-62
2022/07/09 11:03:03;;;;;;;6.50;1.90;;;;;;;26.04;48.48;100762.13;5090101;28;20048;-64
2022/07/09 11:05:34;;;;;;;8.45;1.75;;;;;;;26.27;49.05;100769.63;5090088;28;20059;-63
2022/07/09 11:08:06;;;;;;;1.58;0.88;;;;;;;26.51;47.84;100774.19;5091257;28;20075;-61
2022/07/09 11:10:37;;;;;;;1.33;0.85;;;;;;;26.75;47.27;100763.56;5091263;28;20093;-62
2022/07/09 11:13:06;;;;;;;14.00;2.20;;;;;;;26.98;47.20;100765.63;5089810;28;20048;-65
2022/07/09 11:15:34;;;;;;;1.40;1.00;;;;;;;27.17;46.04;100769.81;5091508;28;20180;-61
2022/07/09 11:18:13;;;;;;;1.73;0.63;;;;;;;27.26;45.26;100763.38;5091453;28;20058;-65
2022/07/09 11:20:43;;;;;;;1.65;0.80;;;;;;;27.37;45.17;100755.88;5091031;28;20051;-62
2022/07/09 11:23:10;;;;;;;1.23;0.80;;;;;;;27.39;44.77;100759.28;5090978;28;20048;-61